createdAt,value
2017-12-10T00:00:33.035Z,69.33
2017-12-10T00:01:13.622Z,69.33
2017-12-10T00:01:54.142Z,69.71
2017-12-10T00:02:34.724Z,68.66
2017-12-10T00:03:15.261Z,68.91
2017-12-10T00:03:55.808Z,69.42
2017-12-10T00:04:36.371Z,69.9
2017-12-10T00:05:16.941Z,69.99
2017-12-10T00:05:57.465Z,69.52
2017-12-10T00:06:38.000Z,69.13
2017-12-10T00:07:18.576Z,69.23
2017-12-10T00:07:59.110Z,69.13
2017-12-10T00:08:39.676Z,68.85
2017-12-10T00:09:20.193Z,68.95
2017-12-10T00:10:00.712Z,69.71
2017-12-10T00:10:41.267Z,69.52
2017-12-10T00:11:21.815Z,69.61
2017-12-10T00:12:02.364Z,69.42
2017-12-10T00:12:42.889Z,69.42
2017-12-10T00:13:23.389Z,69.33
2017-12-10T00:14:03.927Z,69.61
2017-12-10T00:14:44.454Z,69.99
2017-12-10T00:15:25.012Z,69.61
2017-12-10T00:16:05.553Z,69.71
2017-12-10T00:16:46.068Z,70.37
2017-12-10T00:17:26.604Z,70.18
2017-12-10T00:18:07.142Z,69.9
2017-12-10T00:18:47.636Z,70.09
2017-12-10T00:19:28.160Z,70.65
2017-12-10T00:20:08.679Z,70.09
2017-12-10T00:20:49.218Z,70.28
2017-12-10T00:21:29.745Z,70.09
2017-12-10T00:22:10.350Z,70.47
2017-12-10T00:22:50.831Z,70.09
2017-12-10T00:23:31.344Z,69.99
2017-12-10T00:24:11.878Z,70.24
2017-12-10T00:24:52.435Z,70.81
2017-12-10T00:25:32.997Z,71.19
2017-12-10T00:26:13.536Z,70.56
2017-12-10T00:26:54.045Z,70.56
2017-12-10T00:27:34.612Z,70.47
2017-12-10T00:28:15.129Z,70.62
2017-12-10T00:28:55.707Z,70.53
2017-12-10T00:29:36.282Z,70.72
2017-12-10T00:30:16.841Z,71
2017-12-10T00:30:57.367Z,70.37
2017-12-10T00:31:37.907Z,70.37
2017-12-10T00:32:18.426Z,70.75
2017-12-10T00:32:58.959Z,70.9
2017-12-10T00:33:39.467Z,70.75
2017-12-10T00:34:20.052Z,70.81
2017-12-10T00:35:00.556Z,70.34
2017-12-10T00:35:41.092Z,70.9
2017-12-10T00:36:21.652Z,71.66
2017-12-10T00:37:02.172Z,71.28
2017-12-10T00:37:42.710Z,71.41
2017-12-10T00:38:23.270Z,70.72
2017-12-10T00:39:03.792Z,70.72
2017-12-10T00:39:44.330Z,70.72
2017-12-10T00:40:24.939Z,71.38
2017-12-10T00:41:05.503Z,71.38
2017-12-10T00:41:46.103Z,71.47
2017-12-10T00:42:26.543Z,71.57
2017-12-10T00:43:07.048Z,71.66
2017-12-10T00:43:47.581Z,71.66
2017-12-10T00:44:28.138Z,71.47
2017-12-10T00:45:08.707Z,71.95
2017-12-10T00:45:49.212Z,71.85
2017-12-10T00:46:29.725Z,72.23
2017-12-10T00:47:10.246Z,72.04
2017-12-10T00:47:50.798Z,72.14
2017-12-10T00:48:31.384Z,72.04
2017-12-10T00:49:11.868Z,72.14
2017-12-10T00:49:52.439Z,71.95
2017-12-10T00:50:33.018Z,72.52
2017-12-10T00:51:13.494Z,72.42
2017-12-10T00:51:53.990Z,72.61
2017-12-10T00:52:34.535Z,72.99
2017-12-10T00:53:15.056Z,72.89
2017-12-10T00:53:55.578Z,72.71
2017-12-10T00:54:36.120Z,72.8
2017-12-10T00:55:16.618Z,72.23
2017-12-10T00:55:57.235Z,72.52
2017-12-10T00:56:37.749Z,72.42
2017-12-10T00:57:18.271Z,72.61
2017-12-10T00:57:58.776Z,72.52
2017-12-10T00:58:39.305Z,72.33
2017-12-10T00:59:19.813Z,72.52
2017-12-10T01:00:00.378Z,72.52
2017-12-10T01:00:40.901Z,71.95
2017-12-10T01:01:21.425Z,71.95
2017-12-10T01:02:01.992Z,72.8
2017-12-10T01:02:42.509Z,72.89
2017-12-10T01:03:23.038Z,72.89
2017-12-10T01:04:03.569Z,72.33
2017-12-10T01:04:44.118Z,72.71
2017-12-10T01:05:24.645Z,72.33
2017-12-10T01:06:05.156Z,72.99
2017-12-10T01:06:45.680Z,72.52
2017-12-10T01:07:26.272Z,72.8
2017-12-10T01:08:06.782Z,72.33
2017-12-10T01:08:47.331Z,72.61
2017-12-10T01:09:27.914Z,72.99
2017-12-10T01:10:08.476Z,72.42
2017-12-10T01:10:49.014Z,72.71
2017-12-10T01:11:29.551Z,72.42
2017-12-10T01:12:10.052Z,72.61
2017-12-10T01:12:50.601Z,72.33
2017-12-10T01:13:31.093Z,72.71
2017-12-10T01:14:11.634Z,72.23
2017-12-10T01:14:52.157Z,72.14
2017-12-10T01:15:32.704Z,71.95
2017-12-10T01:16:13.224Z,72.23
2017-12-10T01:16:53.778Z,72.04
2017-12-10T01:17:34.319Z,71.95
2017-12-10T01:18:14.861Z,71.85
2017-12-10T01:18:55.415Z,71.76
2017-12-10T01:19:35.946Z,71.57
2017-12-10T01:20:16.474Z,71.57
2017-12-10T01:20:57.038Z,72.14
2017-12-10T01:21:37.548Z,72.23
2017-12-10T01:22:18.037Z,72.23
2017-12-10T01:22:58.592Z,72.23
2017-12-10T01:23:39.110Z,72.14
2017-12-10T01:24:19.657Z,72.99
2017-12-10T01:25:00.196Z,72.61
2017-12-10T01:25:40.736Z,72.23
2017-12-10T01:26:21.300Z,71.95
2017-12-10T01:27:01.798Z,72.52
2017-12-10T01:27:42.349Z,71.95
2017-12-10T01:28:22.906Z,72.14
2017-12-10T01:29:03.427Z,71.95
2017-12-10T01:29:43.934Z,72.52
2017-12-10T01:30:24.485Z,72.89
2017-12-10T01:31:05.019Z,72.89
2017-12-10T01:31:45.562Z,72.71
2017-12-10T01:32:26.084Z,72.61
2017-12-10T01:33:06.612Z,72.14
2017-12-10T01:33:47.137Z,72.61
2017-12-10T01:34:27.680Z,72.71
2017-12-10T01:35:08.238Z,72.23
2017-12-10T01:35:48.753Z,72.52
2017-12-10T01:36:29.313Z,72.99
2017-12-10T01:37:09.836Z,72.61
2017-12-10T01:37:50.349Z,72.33
2017-12-10T01:38:30.874Z,72.14
2017-12-10T01:39:11.398Z,72.52
2017-12-10T01:39:51.934Z,72.42
2017-12-10T01:40:32.464Z,71.85
2017-12-10T01:41:12.941Z,72.61
2017-12-10T01:41:53.463Z,72.89
2017-12-10T01:42:33.992Z,72.52
2017-12-10T01:43:14.548Z,72.14
2017-12-10T01:43:55.080Z,72.52
2017-12-10T01:44:35.614Z,72.52
2017-12-10T01:45:16.193Z,71.95
2017-12-10T01:45:56.689Z,72.52
2017-12-10T01:46:37.203Z,72.04
2017-12-10T01:47:17.740Z,71.95
2017-12-10T01:47:58.207Z,72.33
2017-12-10T01:48:38.760Z,72.23
2017-12-10T01:49:19.351Z,72.04
2017-12-10T01:49:59.880Z,71.85
2017-12-10T01:50:40.417Z,72.33
2017-12-10T01:51:20.960Z,72.52
2017-12-10T01:52:01.535Z,72.61
2017-12-10T01:52:42.007Z,72.52
2017-12-10T01:53:22.530Z,72.99
2017-12-10T01:54:03.072Z,72.33
2017-12-10T01:54:43.677Z,72.52
2017-12-10T01:55:24.159Z,72.52
2017-12-10T01:56:04.689Z,72.42
2017-12-10T01:56:45.155Z,72.23
2017-12-10T01:57:25.752Z,72.71
2017-12-10T01:58:06.307Z,72.71
2017-12-10T01:58:46.824Z,72.61
2017-12-10T01:59:27.352Z,72.89
2017-12-10T02:00:07.884Z,72.99
2017-12-10T02:00:48.473Z,72.71
2017-12-10T02:01:29.011Z,72.42
2017-12-10T02:02:09.528Z,72.52
2017-12-10T02:02:50.126Z,72.89
2017-12-10T02:03:30.650Z,72.71
2017-12-10T02:04:11.180Z,72.61
2017-12-10T02:04:51.736Z,72.8
2017-12-10T02:05:32.289Z,72.61
2017-12-10T02:06:12.802Z,72.71
2017-12-10T02:06:53.341Z,72.8
2017-12-10T02:07:33.865Z,72.61
2017-12-10T02:08:14.390Z,72.42
2017-12-10T02:08:55.004Z,73.18
2017-12-10T02:09:35.515Z,72.99
2017-12-10T02:10:16.073Z,73.18
2017-12-10T02:10:56.591Z,72.71
2017-12-10T02:11:37.124Z,73.18
2017-12-10T02:12:17.648Z,72.89
2017-12-10T02:12:58.185Z,72.61
2017-12-10T02:13:38.704Z,72.42
2017-12-10T02:14:19.278Z,73.18
2017-12-10T02:14:59.782Z,72.96
2017-12-10T02:15:40.320Z,73.37
2017-12-10T02:16:20.863Z,73.05
2017-12-10T02:17:01.426Z,72.96
2017-12-10T02:17:41.964Z,73.24
2017-12-10T02:18:22.494Z,73.05
2017-12-10T02:19:03.035Z,73.08
2017-12-10T02:19:43.534Z,73.18
2017-12-10T02:20:24.142Z,72.42
2017-12-10T02:21:04.601Z,73.08
2017-12-10T02:21:45.128Z,72.8
2017-12-10T02:22:25.685Z,72.8
2017-12-10T02:23:06.200Z,72.89
2017-12-10T02:23:46.737Z,72.8
2017-12-10T02:24:27.249Z,72.89
2017-12-10T02:25:07.815Z,72.52
2017-12-10T02:25:48.354Z,72.23
2017-12-10T02:26:28.918Z,72.52
2017-12-10T02:27:09.441Z,72.14
2017-12-10T02:27:49.947Z,72.14
2017-12-10T02:28:30.451Z,72.14
2017-12-10T02:29:11.012Z,72.33
2017-12-10T02:29:51.541Z,71.85
2017-12-10T02:30:32.115Z,71.85
2017-12-10T02:31:12.655Z,71.76
2017-12-10T02:31:53.192Z,72.14
2017-12-10T02:32:33.738Z,72.14
2017-12-10T02:33:14.248Z,72.04
2017-12-10T02:33:54.824Z,71.38
2017-12-10T02:34:35.303Z,71.38
2017-12-10T02:35:15.872Z,71.47
2017-12-10T02:35:56.403Z,71.47
2017-12-10T02:36:36.953Z,71.66
2017-12-10T02:37:17.427Z,72.04
2017-12-10T02:37:57.992Z,71.76
2017-12-10T02:38:38.551Z,71.76
2017-12-10T02:39:19.072Z,71.85
2017-12-10T02:39:59.627Z,71.95
2017-12-10T02:40:40.171Z,71.76
2017-12-10T02:41:20.705Z,71.95
2017-12-10T02:42:01.219Z,71.85
2017-12-10T02:42:41.769Z,71.47
2017-12-10T02:43:22.318Z,71.47
2017-12-10T02:44:02.823Z,71.95
2017-12-10T02:44:43.356Z,71.28
2017-12-10T02:45:23.889Z,71.47
2017-12-10T02:46:04.435Z,71.66
2017-12-10T02:46:44.984Z,71.47
2017-12-10T02:47:25.504Z,71.76
2017-12-10T02:48:06.019Z,70.81
2017-12-10T02:48:46.556Z,70.72
2017-12-10T02:49:27.120Z,70.53
2017-12-10T02:50:07.644Z,70.62
2017-12-10T02:50:48.206Z,70.37
2017-12-10T02:51:28.729Z,70.62
2017-12-10T02:52:09.274Z,69.9
2017-12-10T02:52:49.808Z,70.09
2017-12-10T02:53:30.320Z,70.18
2017-12-10T02:54:10.848Z,70.18
2017-12-10T02:54:51.358Z,69.8
2017-12-10T02:55:31.903Z,69.9
2017-12-10T02:56:12.445Z,69.8
2017-12-10T02:56:53.000Z,69.9
2017-12-10T02:57:33.583Z,69.61
2017-12-10T02:58:14.168Z,70.09
2017-12-10T02:58:54.628Z,69.99
2017-12-10T02:59:35.171Z,70.47
2017-12-10T03:00:15.711Z,70.65
2017-12-10T03:00:56.241Z,70.18
2017-12-10T03:01:36.777Z,70.18
2017-12-10T03:02:17.328Z,69.9
2017-12-10T03:02:57.823Z,69.42
2017-12-10T03:03:38.399Z,69.13
2017-12-10T03:04:18.898Z,69.01
2017-12-10T03:04:59.479Z,69.48
2017-12-10T03:05:39.975Z,69.48
2017-12-10T03:06:20.503Z,69.96
2017-12-10T03:07:01.052Z,69.9
2017-12-10T03:07:41.548Z,69.52
2017-12-10T03:08:22.074Z,69.52
2017-12-10T03:09:02.594Z,69.61
2017-12-10T03:09:43.170Z,69.71
2017-12-10T03:10:23.707Z,70.05
2017-12-10T03:11:04.215Z,69.99
2017-12-10T03:11:44.802Z,69.96
2017-12-10T03:12:25.306Z,69.86
2017-12-10T03:13:05.843Z,70.43
2017-12-10T03:13:46.383Z,70.65
2017-12-10T03:14:26.933Z,69.8
2017-12-10T03:15:07.496Z,70.05
2017-12-10T03:15:48.019Z,69.77
2017-12-10T03:16:28.532Z,69.67
2017-12-10T03:17:09.074Z,69.99
2017-12-10T03:17:49.612Z,70.37
2017-12-10T03:18:30.200Z,70.18
2017-12-10T03:19:10.673Z,70.28
2017-12-10T03:19:51.230Z,69.99
2017-12-10T03:20:31.769Z,70.37
2017-12-10T03:21:12.275Z,69.99
2017-12-10T03:21:52.798Z,70.09
2017-12-10T03:22:33.376Z,69.99
2017-12-10T03:23:13.909Z,69.99
2017-12-10T03:23:54.460Z,69.8
2017-12-10T03:24:35.012Z,69.33
2017-12-10T03:25:15.556Z,69.33
2017-12-10T03:25:56.056Z,69.42
2017-12-10T03:26:36.592Z,69.61
2017-12-10T03:27:17.135Z,69.42
2017-12-10T03:27:57.672Z,69.9
2017-12-10T03:28:38.206Z,70.09
2017-12-10T03:29:18.770Z,69.99
2017-12-10T03:29:59.328Z,69.33
2017-12-10T03:30:39.873Z,69.52
2017-12-10T03:31:20.425Z,69.61
2017-12-10T03:32:01.004Z,69.33
2017-12-10T03:32:41.516Z,69.23
2017-12-10T03:33:22.051Z,69.52
2017-12-10T03:34:02.551Z,69.23
2017-12-10T03:34:43.152Z,69.71
2017-12-10T03:35:23.693Z,69.33
2017-12-10T03:36:04.311Z,68.85
2017-12-10T03:36:44.847Z,69.04
2017-12-10T03:37:25.378Z,68.66
2017-12-10T03:38:05.930Z,68.66
2017-12-10T03:38:46.470Z,68.66
2017-12-10T03:39:27.018Z,68.48
2017-12-10T03:40:07.521Z,68.76
2017-12-10T03:40:48.087Z,68.85
2017-12-10T03:41:28.661Z,68.66
2017-12-10T03:42:09.203Z,68.95
2017-12-10T03:42:49.755Z,69.52
2017-12-10T03:43:30.460Z,69.42
2017-12-10T03:44:10.845Z,69.33
2017-12-10T03:44:51.369Z,69.13
2017-12-10T03:45:31.894Z,69.42
2017-12-10T03:46:12.390Z,69.33
2017-12-10T03:46:52.950Z,69.33
2017-12-10T03:47:34.151Z,69.23
2017-12-10T03:48:13.995Z,69.13
2017-12-10T03:48:54.543Z,69.52
2017-12-10T03:49:35.053Z,69.23
2017-12-10T03:50:15.584Z,69.13
2017-12-10T03:50:56.143Z,69.52
2017-12-10T03:51:36.684Z,69.71
2017-12-10T03:52:17.248Z,69.9
2017-12-10T03:52:57.786Z,69.42
2017-12-10T03:53:38.323Z,69.23
2017-12-10T03:54:18.841Z,69.42
2017-12-10T03:54:59.356Z,69.52
2017-12-10T03:55:39.851Z,69.23
2017-12-10T03:56:20.398Z,69.13
2017-12-10T03:57:00.920Z,69.9
2017-12-10T03:57:41.441Z,69.99
2017-12-10T03:58:21.957Z,69.9
2017-12-10T03:59:02.519Z,69.52
2017-12-10T03:59:43.104Z,69.9
2017-12-10T04:00:23.618Z,69.71
2017-12-10T04:01:04.142Z,69.61
2017-12-10T04:01:44.678Z,69.13
2017-12-10T04:02:25.255Z,69.61
2017-12-10T04:03:05.726Z,69.99
2017-12-10T04:03:46.280Z,69.9
2017-12-10T04:04:26.834Z,69.23
2017-12-10T04:05:07.369Z,69.61
2017-12-10T04:05:47.843Z,69.71
2017-12-10T04:06:28.393Z,69.61
2017-12-10T04:07:08.932Z,69.52
2017-12-10T04:07:49.507Z,69.61
2017-12-10T04:08:30.003Z,69.52
2017-12-10T04:09:10.550Z,69.33
2017-12-10T04:09:51.089Z,69.42
2017-12-10T04:10:31.589Z,69.61
2017-12-10T04:11:12.111Z,69.9
2017-12-10T04:11:52.647Z,69.52
2017-12-10T04:12:33.188Z,68.85
2017-12-10T04:13:13.714Z,68.85
2017-12-10T04:13:54.242Z,69.52
2017-12-10T04:14:34.774Z,69.52
2017-12-10T04:15:15.318Z,69.71
2017-12-10T04:15:55.850Z,69.33
2017-12-10T04:16:36.412Z,69.52
2017-12-10T04:17:16.925Z,69.13
2017-12-10T04:17:57.472Z,69.33
2017-12-10T04:18:38.002Z,69.9
2017-12-10T04:19:18.548Z,69.61
2017-12-10T04:19:59.078Z,69.23
2017-12-10T04:20:39.635Z,69.9
2017-12-10T04:21:20.124Z,69.8
2017-12-10T04:22:00.657Z,70.18
2017-12-10T04:22:41.245Z,70.18
2017-12-10T04:23:21.749Z,69.42
2017-12-10T04:24:03.155Z,69.99
2017-12-10T04:24:43.455Z,69.71
2017-12-10T04:25:23.971Z,69.61
2017-12-10T04:26:04.525Z,69.71
2017-12-10T04:26:45.045Z,69.61
2017-12-10T04:27:25.614Z,69.42
2017-12-10T04:28:06.092Z,69.13
2017-12-10T04:28:46.634Z,69.23
2017-12-10T04:29:27.185Z,69.9
2017-12-10T04:30:07.697Z,69.42
2017-12-10T04:30:48.205Z,69.42
2017-12-10T04:31:28.847Z,69.33
2017-12-10T04:32:09.409Z,69.33
2017-12-10T04:32:49.933Z,69.52
2017-12-10T04:33:30.518Z,69.42
2017-12-10T04:34:11.002Z,70.18
2017-12-10T04:34:51.508Z,69.9
2017-12-10T04:35:32.057Z,69.99
2017-12-10T04:36:12.641Z,69.99
2017-12-10T04:36:53.146Z,69.71
2017-12-10T04:37:33.700Z,69.13
2017-12-10T04:38:14.197Z,69.71
2017-12-10T04:38:54.747Z,69.13
2017-12-10T04:39:35.290Z,69.13
2017-12-10T04:40:15.839Z,69.36
2017-12-10T04:40:56.370Z,69.33
2017-12-10T04:41:36.901Z,69.9
2017-12-10T04:42:17.447Z,70.21
2017-12-10T04:42:58.030Z,69.13
2017-12-10T04:43:38.535Z,69.61
2017-12-10T04:44:19.110Z,68.76
2017-12-10T04:44:59.647Z,68.66
2017-12-10T04:45:40.225Z,68.85
2017-12-10T04:46:20.705Z,69.23
2017-12-10T04:47:01.246Z,68.66
2017-12-10T04:47:41.803Z,69.52
2017-12-10T04:48:22.345Z,68.76
2017-12-10T04:49:02.890Z,68.38
2017-12-10T04:49:43.410Z,68.57
2017-12-10T04:50:23.942Z,68.76
2017-12-10T04:51:04.479Z,69.13
2017-12-10T04:51:45.008Z,69.04
2017-12-10T04:52:25.550Z,68.57
2017-12-10T04:53:06.136Z,68.76
2017-12-10T04:53:46.609Z,68.66
2017-12-10T04:54:27.174Z,68.57
2017-12-10T04:55:07.661Z,68.57
2017-12-10T04:55:48.214Z,68.66
2017-12-10T04:56:28.751Z,68.57
2017-12-10T04:57:09.308Z,68.66
2017-12-10T04:57:49.834Z,68.85
2017-12-10T04:58:30.368Z,68.85
2017-12-10T04:59:10.926Z,68.95
2017-12-10T04:59:51.451Z,68.85
2017-12-10T05:00:32.010Z,68.29
2017-12-10T05:01:13.166Z,68.66
2017-12-10T05:01:53.064Z,68.66
2017-12-10T05:02:33.607Z,68.48
2017-12-10T05:03:14.148Z,68.95
2017-12-10T05:03:54.704Z,69.61
2017-12-10T05:04:35.252Z,69.23
2017-12-10T05:05:15.781Z,69.55
2017-12-10T05:05:56.325Z,68.95
2017-12-10T05:06:36.873Z,68.66
2017-12-10T05:07:17.406Z,68.85
2017-12-10T05:07:57.949Z,68.85
2017-12-10T05:08:38.524Z,68.66
2017-12-10T05:09:19.048Z,68.57
2017-12-10T05:09:59.559Z,68.66
2017-12-10T05:10:40.083Z,68.7
2017-12-10T05:11:20.601Z,68.79
2017-12-10T05:12:01.134Z,68.98
2017-12-10T05:12:41.717Z,68.95
2017-12-10T05:13:22.224Z,68.41
2017-12-10T05:14:02.761Z,68.79
2017-12-10T05:14:43.287Z,68.7
2017-12-10T05:15:23.823Z,68.66
2017-12-10T05:16:04.358Z,68.79
2017-12-10T05:16:44.916Z,68.6
2017-12-10T05:17:25.430Z,68.41
2017-12-10T05:18:05.953Z,68.7
2017-12-10T05:18:46.517Z,68.98
2017-12-10T05:19:27.031Z,68.98
2017-12-10T05:20:07.584Z,69.17
2017-12-10T05:20:48.106Z,69.27
2017-12-10T05:21:28.626Z,69.27
2017-12-10T05:22:09.190Z,70.12
2017-12-10T05:22:49.754Z,69.93
2017-12-10T05:23:30.294Z,70.5
2017-12-10T05:24:10.823Z,71.17
2017-12-10T05:24:51.357Z,70.78
2017-12-10T05:25:31.892Z,71.55
2017-12-10T05:26:12.420Z,71.07
2017-12-10T05:26:52.997Z,70.59
2017-12-10T05:27:33.498Z,70.4
2017-12-10T05:28:14.006Z,70.78
2017-12-10T05:28:54.556Z,70.98
2017-12-10T05:29:35.062Z,70.69
2017-12-10T05:30:15.619Z,71.26
2017-12-10T05:30:56.172Z,71.17
2017-12-10T05:31:36.688Z,70.84
2017-12-10T05:32:17.248Z,71.03
2017-12-10T05:32:57.780Z,71.6
2017-12-10T05:33:38.355Z,71.22
2017-12-10T05:34:18.918Z,71.7
2017-12-10T05:34:59.446Z,71.03
2017-12-10T05:35:39.965Z,71.03
2017-12-10T05:36:20.460Z,70.84
2017-12-10T05:37:01.006Z,71.07
2017-12-10T05:37:41.557Z,70.78
2017-12-10T05:38:22.082Z,70.5
2017-12-10T05:39:02.606Z,71.17
2017-12-10T05:39:43.158Z,70.98
2017-12-10T05:40:23.701Z,70.47
2017-12-10T05:41:04.253Z,70.12
2017-12-10T05:41:44.871Z,70.12
2017-12-10T05:42:25.415Z,70.21
2017-12-10T05:43:05.975Z,69.74
2017-12-10T05:43:46.532Z,69.36
2017-12-10T05:44:27.038Z,69.27
2017-12-10T05:45:07.569Z,69.27
2017-12-10T05:45:48.085Z,69.55
2017-12-10T05:46:28.618Z,68.7
2017-12-10T05:47:09.190Z,68.7
2017-12-10T05:47:49.699Z,68.51
2017-12-10T05:48:30.279Z,68.6
2017-12-10T05:49:10.792Z,68.6
2017-12-10T05:49:51.334Z,68.79
2017-12-10T05:50:31.828Z,68.79
2017-12-10T05:51:12.371Z,68.76
2017-12-10T05:51:52.926Z,68.48
2017-12-10T05:52:33.702Z,69.13
2017-12-10T05:53:14.019Z,69.13
2017-12-10T05:53:54.536Z,69.71
2017-12-10T05:54:35.111Z,69.42
2017-12-10T05:55:15.748Z,69.9
2017-12-10T05:55:56.203Z,69.99
2017-12-10T05:56:36.714Z,70.28
2017-12-10T05:57:17.235Z,69.8
2017-12-10T05:57:57.779Z,70.09
2017-12-10T05:58:38.395Z,69.99
2017-12-10T05:59:18.867Z,70.65
2017-12-10T05:59:59.398Z,70.09
2017-12-10T06:00:39.929Z,70.65
2017-12-10T06:01:20.483Z,70.47
2017-12-10T06:02:01.070Z,70.65
2017-12-10T06:02:41.616Z,70.84
2017-12-10T06:03:22.123Z,70.65
2017-12-10T06:04:02.699Z,70.65
2017-12-10T06:04:43.247Z,70.65
2017-12-10T06:05:23.747Z,70.37
2017-12-10T06:06:04.296Z,69.9
2017-12-10T06:06:44.835Z,70.09
2017-12-10T06:07:25.392Z,69.71
2017-12-10T06:08:06.058Z,69.65
2017-12-10T06:08:46.646Z,70.03
2017-12-10T06:09:27.174Z,69.84
2017-12-10T06:10:07.670Z,69.84
2017-12-10T06:10:48.217Z,69.65
2017-12-10T06:11:28.761Z,69.55
2017-12-10T06:12:09.274Z,69.74
2017-12-10T06:12:49.847Z,69.36
2017-12-10T06:13:30.343Z,69.65
2017-12-10T06:14:10.897Z,69.93
2017-12-10T06:14:51.436Z,69.93
2017-12-10T06:15:32.019Z,69.65
2017-12-10T06:16:12.554Z,70.03
2017-12-10T06:16:53.120Z,70.12
2017-12-10T06:17:33.655Z,69.74
2017-12-10T06:18:14.162Z,69.93
2017-12-10T06:18:54.752Z,70.12
2017-12-10T06:19:35.273Z,70.21
2017-12-10T06:20:15.763Z,69.93
2017-12-10T06:20:56.301Z,70.31
2017-12-10T06:21:36.815Z,69.93
2017-12-10T06:22:17.397Z,69.74
2017-12-10T06:22:58.010Z,69.36
2017-12-10T06:23:38.454Z,69.65
2017-12-10T06:24:18.970Z,69.46
2017-12-10T06:24:59.495Z,69.55
2017-12-10T06:25:40.052Z,70.03
2017-12-10T06:26:20.594Z,69.74
2017-12-10T06:27:01.132Z,69.84
2017-12-10T06:27:41.680Z,69.93
2017-12-10T06:28:22.212Z,69.93
2017-12-10T06:29:02.740Z,69.93
2017-12-10T06:29:43.261Z,69.55
2017-12-10T06:30:23.829Z,70.03
2017-12-10T06:31:04.361Z,69.27
2017-12-10T06:31:44.897Z,69.27
2017-12-10T06:32:25.450Z,69.17
2017-12-10T06:33:06.022Z,70.12
2017-12-10T06:33:46.568Z,69.65
2017-12-10T06:34:27.149Z,69.17
2017-12-10T06:35:07.703Z,69.17
2017-12-10T06:35:48.250Z,69.27
2017-12-10T06:36:28.794Z,69.46
2017-12-10T06:37:09.353Z,69.36
2017-12-10T06:37:49.829Z,69.74
2017-12-10T06:38:30.364Z,69.84
2017-12-10T06:39:10.881Z,69.74
2017-12-10T06:39:51.450Z,70.12
2017-12-10T06:40:31.982Z,69.74
2017-12-10T06:41:12.539Z,70.69
2017-12-10T06:41:53.070Z,69.84
2017-12-10T06:42:33.597Z,69.8
2017-12-10T06:43:14.182Z,70.18
2017-12-10T06:43:54.727Z,70.37
2017-12-10T06:44:35.279Z,70.28
2017-12-10T06:45:15.844Z,69.99
2017-12-10T06:45:57.184Z,70.09
2017-12-10T06:46:36.967Z,70.28
2017-12-10T06:47:17.508Z,70.09
2017-12-10T06:47:58.141Z,70.65
2017-12-10T06:48:38.641Z,70.84
2017-12-10T06:49:19.191Z,70.75
2017-12-10T06:49:59.721Z,70.84
2017-12-10T06:50:40.264Z,70.47
2017-12-10T06:51:20.809Z,71.22
2017-12-10T06:52:01.334Z,70.56
2017-12-10T06:52:41.867Z,70.75
2017-12-10T06:53:22.849Z,70.94
2017-12-10T06:54:03.371Z,70.65
2017-12-10T06:54:43.918Z,70.59
2017-12-10T06:55:24.465Z,70.75
2017-12-10T06:56:04.995Z,70.65
2017-12-10T06:56:45.591Z,70.75
2017-12-10T06:57:26.598Z,71.41
2017-12-10T06:58:07.141Z,70.56
2017-12-10T06:58:47.700Z,70.56
2017-12-10T06:59:28.267Z,70.75
2017-12-10T07:00:08.799Z,70.84
2017-12-10T07:00:49.360Z,70.56
2017-12-10T07:01:29.907Z,70.84
2017-12-10T07:02:10.469Z,71.03
2017-12-10T07:02:51.019Z,70.56
2017-12-10T07:03:31.587Z,71.13
2017-12-10T07:04:12.142Z,70.56
2017-12-10T07:04:52.684Z,70.56
2017-12-10T07:05:33.262Z,71.7
2017-12-10T07:06:13.814Z,71.7
2017-12-10T07:06:54.375Z,71.41
2017-12-10T07:07:34.922Z,71.7
2017-12-10T07:08:15.462Z,71.7
2017-12-10T07:08:56.018Z,71.51
2017-12-10T07:09:36.558Z,71.8
2017-12-10T07:10:17.128Z,71.03
2017-12-10T07:10:57.692Z,70.56
2017-12-10T07:11:38.213Z,71.03
2017-12-10T07:12:18.776Z,70.94
2017-12-10T07:12:59.307Z,71.51
2017-12-10T07:13:39.873Z,71.32
2017-12-10T07:14:20.433Z,71.32
2017-12-10T07:15:01.011Z,71.7
2017-12-10T07:15:41.531Z,71.51
2017-12-10T07:16:22.086Z,71.89
2017-12-10T07:17:02.647Z,72.08
2017-12-10T07:17:43.198Z,71.51
2017-12-10T07:18:23.759Z,71.32
2017-12-10T07:19:04.315Z,71.89
2017-12-10T07:19:44.860Z,71.32
2017-12-10T07:20:25.427Z,71.89
2017-12-10T07:21:05.986Z,71.89
2017-12-10T07:21:46.552Z,71.89
2017-12-10T07:22:27.109Z,71.89
2017-12-10T07:23:07.665Z,71.89
2017-12-10T07:23:48.237Z,71.8
2017-12-10T07:24:28.783Z,72.27
2017-12-10T07:25:09.346Z,71.8
2017-12-10T07:25:49.917Z,71.98
2017-12-10T07:26:30.468Z,71.51
2017-12-10T07:27:11.038Z,72.08
2017-12-10T07:27:51.586Z,71.98
2017-12-10T07:28:32.142Z,71.89
2017-12-10T07:29:12.706Z,71.64
2017-12-10T07:29:53.269Z,71.83
2017-12-10T07:30:33.850Z,71.07
2017-12-10T07:31:14.406Z,70.59
2017-12-10T07:31:54.998Z,70.69
2017-12-10T07:32:35.559Z,70.69
2017-12-10T07:33:16.122Z,70.78
2017-12-10T07:33:56.682Z,70.78
2017-12-10T07:34:37.231Z,70.69
2017-12-10T07:35:17.789Z,70.69
2017-12-10T07:35:58.353Z,69.84
2017-12-10T07:36:38.894Z,69.84
2017-12-10T07:37:19.460Z,70.21
2017-12-10T07:38:00.013Z,70.03
2017-12-10T07:38:40.564Z,70.03
2017-12-10T07:39:21.130Z,70.12
2017-12-10T07:40:01.713Z,70.03
2017-12-10T07:40:42.266Z,69.93
2017-12-10T07:41:22.815Z,69.93
2017-12-10T07:42:03.374Z,70.12
2017-12-10T07:42:43.931Z,70.03
2017-12-10T07:43:24.465Z,70.12
2017-12-10T07:44:05.037Z,70.31
2017-12-10T07:44:45.577Z,70.31
2017-12-10T07:45:26.153Z,69.74
2017-12-10T07:46:06.727Z,69.46
2017-12-10T07:46:47.296Z,69.17
2017-12-10T07:47:27.868Z,69.17
2017-12-10T07:48:08.423Z,68.89
2017-12-10T07:48:48.975Z,68.6
2017-12-10T07:49:29.532Z,68.6
2017-12-10T07:50:10.086Z,68.79
2017-12-10T07:50:50.685Z,68.7
2017-12-10T07:51:31.231Z,68.7
2017-12-10T07:52:11.800Z,68.89
2017-12-10T07:52:52.362Z,68.32
2017-12-10T07:53:32.914Z,68.41
2017-12-10T07:54:13.483Z,68.7
2017-12-10T07:54:54.121Z,68.89
2017-12-10T07:55:34.672Z,68.6
2017-12-10T07:56:15.221Z,68.7
2017-12-10T07:56:55.771Z,69.27
2017-12-10T07:57:36.311Z,68.89
2017-12-10T07:58:16.869Z,69.17
2017-12-10T07:58:57.424Z,68.51
2017-12-10T07:59:37.994Z,68.89
2017-12-10T08:00:18.550Z,68.89
2017-12-10T08:00:59.108Z,69.27
2017-12-10T08:01:39.678Z,69.17
2017-12-10T08:02:20.225Z,69.93
2017-12-10T08:03:00.783Z,69.36
2017-12-10T08:03:41.353Z,69.46
2017-12-10T08:04:21.904Z,69.36
2017-12-10T08:05:02.463Z,69.74
2017-12-10T08:05:43.026Z,69.17
2017-12-10T08:06:23.577Z,68.7
2017-12-10T08:07:04.145Z,69.08
2017-12-10T08:07:44.706Z,67.65
2017-12-10T08:08:25.263Z,68.13
2017-12-10T08:09:05.799Z,67.65
2017-12-10T08:09:46.376Z,67.75
2017-12-10T08:10:26.967Z,67.46
2017-12-10T08:11:07.535Z,67.37
2017-12-10T08:11:48.109Z,67.56
2017-12-10T08:12:28.695Z,67.59
2017-12-10T08:13:09.236Z,67.37
2017-12-10T08:13:49.836Z,67.46
2017-12-10T08:14:30.390Z,67.27
2017-12-10T08:15:10.902Z,67.79
2017-12-10T08:15:51.441Z,67.37
2017-12-10T08:16:31.965Z,67.69
2017-12-10T08:17:12.515Z,67.65
2017-12-10T08:17:53.063Z,67.65
2017-12-10T08:18:33.622Z,67.46
2017-12-10T08:19:14.190Z,67.97
2017-12-10T08:19:54.750Z,67.5
2017-12-10T08:20:35.301Z,67.5
2017-12-10T08:21:15.835Z,66.83
2017-12-10T08:21:56.397Z,66.89
2017-12-10T08:22:36.948Z,67.08
2017-12-10T08:23:17.509Z,66.99
2017-12-10T08:23:58.087Z,67.08
2017-12-10T08:24:38.632Z,66.71
2017-12-10T08:25:19.228Z,66.83
2017-12-10T08:25:59.740Z,67.12
2017-12-10T08:26:40.325Z,67.02
2017-12-10T08:27:20.872Z,67.12
2017-12-10T08:28:01.432Z,67.02
2017-12-10T08:28:41.992Z,66.64
2017-12-10T08:29:22.512Z,66.36
2017-12-10T08:30:03.084Z,65.95
2017-12-10T08:30:43.662Z,66.14
2017-12-10T08:31:24.236Z,66.61
2017-12-10T08:32:04.804Z,66.83
2017-12-10T08:32:45.364Z,66.8
2017-12-10T08:33:25.929Z,67.27
2017-12-10T08:34:06.499Z,66.89
2017-12-10T08:34:47.052Z,66.99
2017-12-10T08:35:27.607Z,67.08
2017-12-10T08:36:08.175Z,67.21
2017-12-10T08:36:48.740Z,67.08
2017-12-10T08:37:29.313Z,67.31
2017-12-10T08:38:09.856Z,67.4
2017-12-10T08:38:50.419Z,67.31
2017-12-10T08:39:30.978Z,66.71
2017-12-10T08:40:11.549Z,66.83
2017-12-10T08:40:52.112Z,66.17
2017-12-10T08:41:32.681Z,65.79
2017-12-10T08:42:13.206Z,65.79
2017-12-10T08:42:53.746Z,65.41
2017-12-10T08:43:34.296Z,65.79
2017-12-10T08:44:14.859Z,65.5